sensor_id;sensor_type;location;lat;lon;timestamp;P1;durP1;ratioP1;P2;durP2;ratioP2
20283;SDS011;10301;50.832;4.080;2023-02-04T00:00:51;24.60;;;12.70;;
20283;SDS011;10301;50.832;4.080;2023-02-04T00:03:16;24.65;;;12.50;;
20283;SDS011;10301;50.832;4.080;2023-02-04T00:05:42;20.77;;;12.15;;
20283;SDS011;10301;50.832;4.080;2023-02-04T00:08:08;22.63;;;12.15;;
20283;SDS011;10301;50.832;4.080;2023-02-04T00:10:35;25.85;;;11.95;;
20283;SDS011;10301;50.832;4.080;2023-02-04T00:13:01;21.55;;;11.32;;
20283;SDS011;10301;50.832;4.080;2023-02-04T00:15:28;21.48;;;11.65;;
20283;SDS011;10301;50.832;4.080;2023-02-04T00:17:53;20.63;;;12.32;;
20283;SDS011;10301;50.832;4.080;2023-02-04T00:20:19;25.38;;;12.45;;
20283;SDS011;10301;50.832;4.080;2023-02-04T00:22:44;21.52;;;12.18;;
20283;SDS011;10301;50.832;4.080;2023-02-04T00:25:11;23.63;;;12.05;;
20283;SDS011;10301;50.832;4.080;2023-02-04T00:27:37;26.75;;;12.85;;
20283;SDS011;10301;50.832;4.080;2023-02-04T00:30:06;25.33;;;13.20;;
20283;SDS011;10301;50.832;4.080;2023-02-04T00:32:32;18.75;;;11.60;;
20283;SDS011;10301;50.832;4.080;2023-02-04T00:34:58;19.55;;;12.80;;
20283;SDS011;10301;50.832;4.080;2023-02-04T00:37:25;25.05;;;13.77;;
20283;SDS011;10301;50.832;4.080;2023-02-04T00:39:51;19.92;;;12.48;;
20283;SDS011;10301;50.832;4.080;2023-02-04T00:42:17;26.15;;;13.60;;
20283;SDS011;10301;50.832;4.080;2023-02-04T00:44:43;22.05;;;12.32;;
20283;SDS011;10301;50.832;4.080;2023-02-04T00:47:08;22.98;;;12.02;;
20283;SDS011;10301;50.832;4.080;2023-02-04T00:49:34;23.00;;;12.95;;
20283;SDS011;10301;50.832;4.080;2023-02-04T00:52:00;22.38;;;12.43;;
20283;SDS011;10301;50.832;4.080;2023-02-04T00:54:25;24.17;;;13.52;;
20283;SDS011;10301;50.832;4.080;2023-02-04T00:56:51;27.25;;;12.43;;
20283;SDS011;10301;50.832;4.080;2023-02-04T00:59:17;22.05;;;12.25;;
20283;SDS011;10301;50.832;4.080;2023-02-04T01:01:43;24.83;;;13.18;;
20283;SDS011;10301;50.832;4.080;2023-02-04T01:04:08;23.75;;;12.48;;
20283;SDS011;10301;50.832;4.080;2023-02-04T01:06:34;22.98;;;12.63;;
20283;SDS011;10301;50.832;4.080;2023-02-04T01:09:00;21.35;;;12.52;;
20283;SDS011;10301;50.832;4.080;2023-02-04T01:11:28;25.52;;;12.82;;
20283;SDS011;10301;50.832;4.080;2023-02-04T01:13:54;22.33;;;12.45;;
20283;SDS011;10301;50.832;4.080;2023-02-04T01:16:20;25.60;;;12.55;;
20283;SDS011;10301;50.832;4.080;2023-02-04T01:18:46;23.08;;;13.10;;
20283;SDS011;10301;50.832;4.080;2023-02-04T01:21:11;22.17;;;12.40;;
20283;SDS011;10301;50.832;4.080;2023-02-04T01:23:37;25.48;;;13.95;;
20283;SDS011;10301;50.832;4.080;2023-02-04T01:26:03;22.10;;;12.93;;
20283;SDS011;10301;50.832;4.080;2023-02-04T01:28:29;22.25;;;13.18;;
20283;SDS011;10301;50.832;4.080;2023-02-04T01:30:54;22.20;;;13.32;;
20283;SDS011;10301;50.832;4.080;2023-02-04T01:33:20;20.98;;;13.00;;
20283;SDS011;10301;50.832;4.080;2023-02-04T01:35:46;26.20;;;13.18;;
20283;SDS011;10301;50.832;4.080;2023-02-04T01:38:12;24.60;;;12.77;;
20283;SDS011;10301;50.832;4.080;2023-02-04T01:40:38;26.40;;;12.27;;
20283;SDS011;10301;50.832;4.080;2023-02-04T01:43:04;22.95;;;13.25;;
20283;SDS011;10301;50.832;4.080;2023-02-04T01:45:30;25.50;;;13.73;;
20283;SDS011;10301;50.832;4.080;2023-02-04T01:48:02;23.30;;;13.30;;
20283;SDS011;10301;50.832;4.080;2023-02-04T01:50:29;25.65;;;12.88;;
20283;SDS011;10301;50.832;4.080;2023-02-04T01:52:56;21.30;;;12.85;;
20283;SDS011;10301;50.832;4.080;2023-02-04T01:55:23;24.95;;;13.82;;
20283;SDS011;10301;50.832;4.080;2023-02-04T01:57:52;21.02;;;14.00;;
20283;SDS011;10301;50.832;4.080;2023-02-04T02:00:20;25.45;;;13.68;;
20283;SDS011;10301;50.832;4.080;2023-02-04T02:02:49;28.15;;;13.85;;
20283;SDS011;10301;50.832;4.080;2023-02-04T02:06:01;25.80;;;15.38;;
20283;SDS011;10301;50.832;4.080;2023-02-04T02:08:08;28.95;;;15.23;;
20283;SDS011;10301;50.832;4.080;2023-02-04T02:10:35;24.95;;;14.95;;
20283;SDS011;10301;50.832;4.080;2023-02-04T02:13:04;25.25;;;15.52;;
20283;SDS011;10301;50.832;4.080;2023-02-04T02:15:31;25.42;;;14.75;;
20283;SDS011;10301;50.832;4.080;2023-02-04T02:17:57;26.55;;;14.98;;
20283;SDS011;10301;50.832;4.080;2023-02-04T02:20:23;26.10;;;15.40;;
20283;SDS011;10301;50.832;4.080;2023-02-04T02:25:42;27.55;;;16.15;;
20283;SDS011;10301;50.832;4.080;2023-02-04T02:28:12;31.85;;;15.88;;
20283;SDS011;10301;50.832;4.080;2023-02-04T02:30:40;23.95;;;15.27;;
20283;SDS011;10301;50.832;4.080;2023-02-04T02:33:09;24.60;;;15.02;;
20283;SDS011;10301;50.832;4.080;2023-02-04T02:35:36;28.88;;;15.77;;
20283;SDS011;10301;50.832;4.080;2023-02-04T02:38:02;27.98;;;14.38;;
20283;SDS011;10301;50.832;4.080;2023-02-04T02:40:27;31.05;;;15.73;;
20283;SDS011;10301;50.832;4.080;2023-02-04T02:42:53;30.50;;;15.57;;
20283;SDS011;10301;50.832;4.080;2023-02-04T02:45:21;24.27;;;15.32;;
20283;SDS011;10301;50.832;4.080;2023-02-04T02:47:49;26.98;;;15.90;;
20283;SDS011;10301;50.832;4.080;2023-02-04T02:50:16;23.80;;;15.35;;
20283;SDS011;10301;50.832;4.080;2023-02-04T02:52:47;27.55;;;15.30;;
20283;SDS011;10301;50.832;4.080;2023-02-04T02:55:14;25.90;;;15.52;;
20283;SDS011;10301;50.832;4.080;2023-02-04T02:57:42;31.80;;;16.92;;
20283;SDS011;10301;50.832;4.080;2023-02-04T03:00:13;27.90;;;16.05;;
20283;SDS011;10301;50.832;4.080;2023-02-04T03:02:40;27.75;;;16.70;;
20283;SDS011;10301;50.832;4.080;2023-02-04T03:05:07;28.05;;;16.40;;
20283;SDS011;10301;50.832;4.080;2023-02-04T03:07:34;29.45;;;18.02;;
20283;SDS011;10301;50.832;4.080;2023-02-04T03:10:00;27.98;;;16.50;;
20283;SDS011;10301;50.832;4.080;2023-02-04T03:12:26;31.38;;;16.50;;
20283;SDS011;10301;50.832;4.080;2023-02-04T03:14:51;25.80;;;16.42;;
20283;SDS011;10301;50.832;4.080;2023-02-04T03:17:17;28.63;;;17.83;;
20283;SDS011;10301;50.832;4.080;2023-02-04T03:19:43;26.52;;;15.75;;
20283;SDS011;10301;50.832;4.080;2023-02-04T03:22:08;30.33;;;17.02;;
20283;SDS011;10301;50.832;4.080;2023-02-04T03:24:35;25.95;;;16.40;;
20283;SDS011;10301;50.832;4.080;2023-02-04T03:27:01;23.83;;;15.50;;
20283;SDS011;10301;50.832;4.080;2023-02-04T03:29:27;26.02;;;16.67;;
20283;SDS011;10301;50.832;4.080;2023-02-04T03:31:52;23.45;;;15.68;;
20283;SDS011;10301;50.832;4.080;2023-02-04T03:34:20;24.33;;;15.13;;
20283;SDS011;10301;50.832;4.080;2023-02-04T03:36:46;24.00;;;15.60;;
20283;SDS011;10301;50.832;4.080;2023-02-04T03:39:12;22.00;;;14.15;;
20283;SDS011;10301;50.832;4.080;2023-02-04T03:41:38;24.23;;;14.70;;
20283;SDS011;10301;50.832;4.080;2023-02-04T03:44:03;25.77;;;14.27;;
20283;SDS011;10301;50.832;4.080;2023-02-04T03:46:29;22.83;;;14.15;;
20283;SDS011;10301;50.832;4.080;2023-02-04T03:48:54;23.45;;;13.88;;
20283;SDS011;10301;50.832;4.080;2023-02-04T03:51:20;21.58;;;14.02;;
20283;SDS011;10301;50.832;4.080;2023-02-04T03:53:46;25.67;;;14.77;;
20283;SDS011;10301;50.832;4.080;2023-02-04T03:56:11;23.67;;;14.80;;
20283;SDS011;10301;50.832;4.080;2023-02-04T03:58:37;25.63;;;15.43;;
20283;SDS011;10301;50.832;4.080;2023-02-04T04:01:03;26.63;;;15.30;;
20283;SDS011;10301;50.832;4.080;2023-02-04T04:03:28;24.40;;;14.77;;
20283;SDS011;10301;50.832;4.080;2023-02-04T04:05:54;28.13;;;15.70;;
20283;SDS011;10301;50.832;4.080;2023-02-04T04:08:20;29.63;;;15.50;;
20283;SDS011;10301;50.832;4.080;2023-02-04T04:10:45;27.30;;;14.95;;
20283;SDS011;10301;50.832;4.080;2023-02-04T04:13:11;27.70;;;16.88;;
20283;SDS011;10301;50.832;4.080;2023-02-04T04:15:36;25.25;;;16.10;;
20283;SDS011;10301;50.832;4.080;2023-02-04T04:18:02;29.42;;;16.23;;
20283;SDS011;10301;50.832;4.080;2023-02-04T04:20:28;28.20;;;16.40;;
20283;SDS011;10301;50.832;4.080;2023-02-04T04:22:54;28.98;;;16.80;;
20283;SDS011;10301;50.832;4.080;2023-02-04T04:25:20;29.23;;;16.38;;
20283;SDS011;10301;50.832;4.080;2023-02-04T04:27:46;28.65;;;17.10;;
20283;SDS011;10301;50.832;4.080;2023-02-04T04:30:11;34.72;;;18.23;;
20283;SDS011;10301;50.832;4.080;2023-02-04T04:32:37;32.08;;;17.88;;
20283;SDS011;10301;50.832;4.080;2023-02-04T04:35:03;35.05;;;17.48;;
20283;SDS011;10301;50.832;4.080;2023-02-04T04:37:28;31.48;;;17.83;;
20283;SDS011;10301;50.832;4.080;2023-02-04T04:39:54;30.67;;;17.17;;
20283;SDS011;10301;50.832;4.080;2023-02-04T04:42:20;33.40;;;18.70;;
20283;SDS011;10301;50.832;4.080;2023-02-04T04:44:45;30.92;;;17.85;;
20283;SDS011;10301;50.832;4.080;2023-02-04T04:47:11;35.85;;;19.42;;
20283;SDS011;10301;50.832;4.080;2023-02-04T04:49:40;31.42;;;18.10;;
20283;SDS011;10301;50.832;4.080;2023-02-04T04:52:05;35.17;;;17.90;;
20283;SDS011;10301;50.832;4.080;2023-02-04T04:54:31;33.95;;;19.10;;
20283;SDS011;10301;50.832;4.080;2023-02-04T04:56:56;34.30;;;18.80;;
20283;SDS011;10301;50.832;4.080;2023-02-04T04:59:22;35.95;;;19.63;;
20283;SDS011;10301;50.832;4.080;2023-02-04T05:01:48;38.88;;;20.10;;
20283;SDS011;10301;50.832;4.080;2023-02-04T05:04:13;35.17;;;18.80;;
20283;SDS011;10301;50.832;4.080;2023-02-04T05:06:39;34.65;;;18.70;;
20283;SDS011;10301;50.832;4.080;2023-02-04T05:09:05;36.55;;;19.45;;
20283;SDS011;10301;50.832;4.080;2023-02-04T05:11:30;39.55;;;19.75;;
20283;SDS011;10301;50.832;4.080;2023-02-04T05:13:56;36.35;;;19.27;;
20283;SDS011;10301;50.832;4.080;2023-02-04T05:16:22;34.60;;;19.45;;
20283;SDS011;10301;50.832;4.080;2023-02-04T05:18:48;41.70;;;19.83;;
20283;SDS011;10301;50.832;4.080;2023-02-04T05:21:13;38.83;;;19.27;;
20283;SDS011;10301;50.832;4.080;2023-02-04T05:23:39;38.67;;;18.87;;
20283;SDS011;10301;50.832;4.080;2023-02-04T05:26:05;42.17;;;20.60;;
20283;SDS011;10301;50.832;4.080;2023-02-04T05:28:30;39.73;;;21.03;;
20283;SDS011;10301;50.832;4.080;2023-02-04T05:30:56;45.60;;;21.57;;
20283;SDS011;10301;50.832;4.080;2023-02-04T05:33:22;42.40;;;22.07;;
20283;SDS011;10301;50.832;4.080;2023-02-04T05:35:47;43.40;;;22.30;;
20283;SDS011;10301;50.832;4.080;2023-02-04T05:38:13;45.67;;;22.33;;
20283;SDS011;10301;50.832;4.080;2023-02-04T05:40:39;52.10;;;22.80;;
20283;SDS011;10301;50.832;4.080;2023-02-04T05:43:04;51.30;;;22.83;;
20283;SDS011;10301;50.832;4.080;2023-02-04T05:45:30;48.35;;;23.35;;
20283;SDS011;10301;50.832;4.080;2023-02-04T05:47:56;58.15;;;24.67;;
20283;SDS011;10301;50.832;4.080;2023-02-04T05:50:21;48.05;;;24.05;;
20283;SDS011;10301;50.832;4.080;2023-02-04T05:52:47;47.92;;;23.75;;
20283;SDS011;10301;50.832;4.080;2023-02-04T05:55:12;48.95;;;22.95;;
20283;SDS011;10301;50.832;4.080;2023-02-04T05:57:38;46.45;;;23.67;;
20283;SDS011;10301;50.832;4.080;2023-02-04T06:00:04;48.88;;;24.02;;
20283;SDS011;10301;50.832;4.080;2023-02-04T06:02:31;47.92;;;23.20;;
20283;SDS011;10301;50.832;4.080;2023-02-04T06:04:56;49.42;;;23.25;;
20283;SDS011;10301;50.832;4.080;2023-02-04T06:07:22;52.83;;;23.15;;
20283;SDS011;10301;50.832;4.080;2023-02-04T06:09:48;49.30;;;22.95;;
20283;SDS011;10301;50.832;4.080;2023-02-04T06:12:13;56.42;;;24.15;;
20283;SDS011;10301;50.832;4.080;2023-02-04T06:14:39;54.30;;;24.17;;
20283;SDS011;10301;50.832;4.080;2023-02-04T06:17:04;57.80;;;24.53;;
20283;SDS011;10301;50.832;4.080;2023-02-04T06:19:30;48.57;;;22.27;;
20283;SDS011;10301;50.832;4.080;2023-02-04T06:21:56;56.22;;;25.88;;
20283;SDS011;10301;50.832;4.080;2023-02-04T06:24:21;54.72;;;24.25;;
20283;SDS011;10301;50.832;4.080;2023-02-04T06:26:47;57.20;;;25.13;;
20283;SDS011;10301;50.832;4.080;2023-02-04T06:29:13;54.53;;;24.37;;
20283;SDS011;10301;50.832;4.080;2023-02-04T06:31:38;51.53;;;24.67;;
20283;SDS011;10301;50.832;4.080;2023-02-04T06:34:04;54.83;;;24.30;;
20283;SDS011;10301;50.832;4.080;2023-02-04T06:36:30;53.65;;;23.35;;
20283;SDS011;10301;50.832;4.080;2023-02-04T06:38:56;49.90;;;22.77;;
20283;SDS011;10301;50.832;4.080;2023-02-04T06:41:22;51.65;;;22.77;;
20283;SDS011;10301;50.832;4.080;2023-02-04T06:43:47;46.13;;;22.10;;
20283;SDS011;10301;50.832;4.080;2023-02-04T06:46:13;52.50;;;24.03;;
20283;SDS011;10301;50.832;4.080;2023-02-04T06:48:40;51.87;;;23.10;;
20283;SDS011;10301;50.832;4.080;2023-02-04T06:51:05;55.60;;;23.10;;
20283;SDS011;10301;50.832;4.080;2023-02-04T06:53:31;44.88;;;21.00;;
20283;SDS011;10301;50.832;4.080;2023-02-04T06:55:56;45.80;;;19.67;;
20283;SDS011;10301;50.832;4.080;2023-02-04T06:58:22;47.03;;;20.40;;
20283;SDS011;10301;50.832;4.080;2023-02-04T07:00:48;55.40;;;30.15;;
20283;SDS011;10301;50.832;4.080;2023-02-04T07:03:13;42.17;;;20.35;;
20283;SDS011;10301;50.832;4.080;2023-02-04T07:05:39;44.08;;;20.00;;
20283;SDS011;10301;50.832;4.080;2023-02-04T07:08:04;49.20;;;20.57;;
20283;SDS011;10301;50.832;4.080;2023-02-04T07:10:30;45.33;;;19.67;;
20283;SDS011;10301;50.832;4.080;2023-02-04T07:12:56;44.67;;;20.52;;
20283;SDS011;10301;50.832;4.080;2023-02-04T07:15:22;49.13;;;21.60;;
20283;SDS011;10301;50.832;4.080;2023-02-04T07:17:48;47.63;;;19.73;;
20283;SDS011;10301;50.832;4.080;2023-02-04T07:20:14;45.05;;;21.05;;
20283;SDS011;10301;50.832;4.080;2023-02-04T07:22:40;49.70;;;21.27;;
20283;SDS011;10301;50.832;4.080;2023-02-04T07:25:06;46.47;;;19.65;;
20283;SDS011;10301;50.832;4.080;2023-02-04T07:27:32;47.67;;;20.48;;
20283;SDS011;10301;50.832;4.080;2023-02-04T07:29:58;49.45;;;21.80;;
20283;SDS011;10301;50.832;4.080;2023-02-04T07:32:23;46.92;;;21.25;;
20283;SDS011;10301;50.832;4.080;2023-02-04T07:34:51;48.50;;;22.50;;
20283;SDS011;10301;50.832;4.080;2023-02-04T07:37:17;47.38;;;20.85;;
20283;SDS011;10301;50.832;4.080;2023-02-04T07:39:44;53.37;;;21.60;;
20283;SDS011;10301;50.832;4.080;2023-02-04T07:42:10;51.17;;;20.67;;
20283;SDS011;10301;50.832;4.080;2023-02-04T07:44:35;50.92;;;22.70;;
20283;SDS011;10301;50.832;4.080;2023-02-04T07:47:01;48.33;;;20.97;;
20283;SDS011;10301;50.832;4.080;2023-02-04T07:49:27;49.35;;;21.50;;
20283;SDS011;10301;50.832;4.080;2023-02-04T07:51:53;54.67;;;20.80;;
20283;SDS011;10301;50.832;4.080;2023-02-04T07:54:18;57.73;;;23.40;;
20283;SDS011;10301;50.832;4.080;2023-02-04T07:56:44;47.05;;;20.65;;
20283;SDS011;10301;50.832;4.080;2023-02-04T07:59:10;50.03;;;20.95;;
20283;SDS011;10301;50.832;4.080;2023-02-04T08:01:35;54.72;;;24.00;;
20283;SDS011;10301;50.832;4.080;2023-02-04T08:04:01;53.60;;;21.60;;
20283;SDS011;10301;50.832;4.080;2023-02-04T08:06:27;42.72;;;19.83;;
20283;SDS011;10301;50.832;4.080;2023-02-04T08:08:53;42.35;;;19.17;;
20283;SDS011;10301;50.832;4.080;2023-02-04T08:11:18;55.42;;;21.60;;
20283;SDS011;10301;50.832;4.080;2023-02-04T08:13:44;48.78;;;20.08;;
20283;SDS011;10301;50.832;4.080;2023-02-04T08:16:10;50.47;;;21.33;;
20283;SDS011;10301;50.832;4.080;2023-02-04T08:18:35;51.78;;;21.80;;
20283;SDS011;10301;50.832;4.080;2023-02-04T08:21:01;46.60;;;20.67;;
20283;SDS011;10301;50.832;4.080;2023-02-04T08:23:28;54.00;;;23.23;;
20283;SDS011;10301;50.832;4.080;2023-02-04T08:25:54;48.80;;;21.50;;
20283;SDS011;10301;50.832;4.080;2023-02-04T08:28:20;53.50;;;24.50;;
20283;SDS011;10301;50.832;4.080;2023-02-04T08:30:46;56.10;;;24.25;;
20283;SDS011;10301;50.832;4.080;2023-02-04T08:33:11;56.78;;;24.48;;
20283;SDS011;10301;50.832;4.080;2023-02-04T08:35:37;56.97;;;24.90;;
20283;SDS011;10301;50.832;4.080;2023-02-04T08:38:03;55.53;;;22.77;;
20283;SDS011;10301;50.832;4.080;2023-02-04T08:40:28;50.50;;;19.98;;
20283;SDS011;10301;50.832;4.080;2023-02-04T08:42:54;49.33;;;22.85;;
20283;SDS011;10301;50.832;4.080;2023-02-04T08:45:20;45.63;;;20.35;;
20283;SDS011;10301;50.832;4.080;2023-02-04T08:47:45;42.63;;;19.02;;
20283;SDS011;10301;50.832;4.080;2023-02-04T08:50:11;45.88;;;20.55;;
20283;SDS011;10301;50.832;4.080;2023-02-04T08:52:37;44.92;;;19.38;;
20283;SDS011;10301;50.832;4.080;2023-02-04T08:55:03;38.28;;;17.75;;
20283;SDS011;10301;50.832;4.080;2023-02-04T08:57:29;40.10;;;17.45;;
20283;SDS011;10301;50.832;4.080;2023-02-04T08:59:54;43.78;;;18.15;;
20283;SDS011;10301;50.832;4.080;2023-02-04T09:02:20;39.22;;;17.60;;
20283;SDS011;10301;50.832;4.080;2023-02-04T09:04:46;44.88;;;19.33;;
20283;SDS011;10301;50.832;4.080;2023-02-04T09:07:11;41.83;;;18.67;;
20283;SDS011;10301;50.832;4.080;2023-02-04T09:09:37;55.22;;;21.70;;
20283;SDS011;10301;50.832;4.080;2023-02-04T09:12:02;48.35;;;20.05;;
20283;SDS011;10301;50.832;4.080;2023-02-04T09:14:28;46.78;;;19.50;;
20283;SDS011;10301;50.832;4.080;2023-02-04T09:16:54;45.67;;;20.33;;
20283;SDS011;10301;50.832;4.080;2023-02-04T09:19:19;43.78;;;20.33;;
20283;SDS011;10301;50.832;4.080;2023-02-04T09:21:50;38.33;;;18.13;;
20283;SDS011;10301;50.832;4.080;2023-02-04T09:24:16;50.28;;;19.60;;
20283;SDS011;10301;50.832;4.080;2023-02-04T09:26:42;41.75;;;20.00;;
20283;SDS011;10301;50.832;4.080;2023-02-04T09:29:08;42.85;;;20.42;;
20283;SDS011;10301;50.832;4.080;2023-02-04T09:31:33;43.55;;;18.88;;
20283;SDS011;10301;50.832;4.080;2023-02-04T09:33:59;45.38;;;19.48;;
20283;SDS011;10301;50.832;4.080;2023-02-04T09:36:24;41.05;;;18.88;;
20283;SDS011;10301;50.832;4.080;2023-02-04T09:38:53;39.92;;;19.42;;
20283;SDS011;10301;50.832;4.080;2023-02-04T09:41:19;43.78;;;18.45;;
20283;SDS011;10301;50.832;4.080;2023-02-04T09:43:45;45.90;;;19.38;;
20283;SDS011;10301;50.832;4.080;2023-02-04T09:46:21;45.47;;;19.17;;
20283;SDS011;10301;50.832;4.080;2023-02-04T09:48:49;49.42;;;20.63;;
20283;SDS011;10301;50.832;4.080;2023-02-04T09:51:22;47.65;;;19.40;;
20283;SDS011;10301;50.832;4.080;2023-02-04T09:53:51;48.83;;;19.52;;
20283;SDS011;10301;50.832;4.080;2023-02-04T09:56:19;39.50;;;18.42;;
20283;SDS011;10301;50.832;4.080;2023-02-04T09:58:45;48.83;;;20.15;;
20283;SDS011;10301;50.832;4.080;2023-02-04T10:01:13;47.20;;;21.92;;
20283;SDS011;10301;50.832;4.080;2023-02-04T10:03:40;44.70;;;20.85;;
20283;SDS011;10301;50.832;4.080;2023-02-04T10:06:14;50.15;;;22.60;;
20283;SDS011;10301;50.832;4.080;2023-02-04T10:08:44;48.50;;;21.13;;
20283;SDS011;10301;50.832;4.080;2023-02-04T10:11:11;46.40;;;20.63;;
20283;SDS011;10301;50.832;4.080;2023-02-04T10:13:40;48.70;;;21.10;;
20283;SDS011;10301;50.832;4.080;2023-02-04T10:16:19;51.05;;;20.95;;
20283;SDS011;10301;50.832;4.080;2023-02-04T10:18:59;49.35;;;22.83;;
20283;SDS011;10301;50.832;4.080;2023-02-04T10:21:28;47.88;;;21.85;;
20283;SDS011;10301;50.832;4.080;2023-02-04T10:23:57;48.63;;;20.98;;
20283;SDS011;10301;50.832;4.080;2023-02-04T10:26:25;49.33;;;22.20;;
20283;SDS011;10301;50.832;4.080;2023-02-04T10:29:00;50.35;;;22.50;;
20283;SDS011;10301;50.832;4.080;2023-02-04T10:36:40;46.55;;;23.23;;
20283;SDS011;10301;50.832;4.080;2023-02-04T10:39:12;52.53;;;23.63;;
20283;SDS011;10301;50.832;4.080;2023-02-04T10:41:49;47.03;;;22.33;;
20283;SDS011;10301;50.832;4.080;2023-02-04T10:44:18;58.38;;;23.63;;
20283;SDS011;10301;50.832;4.080;2023-02-04T10:47:06;55.50;;;24.55;;
20283;SDS011;10301;50.832;4.080;2023-02-04T10:49:40;46.20;;;22.85;;
20283;SDS011;10301;50.832;4.080;2023-02-04T10:52:15;53.42;;;23.52;;
20283;SDS011;10301;50.832;4.080;2023-02-04T10:54:42;45.75;;;22.55;;
20283;SDS011;10301;50.832;4.080;2023-02-04T10:57:19;49.28;;;23.27;;
20283;SDS011;10301;50.832;4.080;2023-02-04T10:59:46;45.88;;;22.98;;
20283;SDS011;10301;50.832;4.080;2023-02-04T11:05:05;49.45;;;21.60;;
20283;SDS011;10301;50.832;4.080;2023-02-04T11:07:36;42.80;;;21.65;;
20283;SDS011;10301;50.832;4.080;2023-02-04T11:10:01;42.28;;;21.50;;
20283;SDS011;10301;50.832;4.080;2023-02-04T11:12:41;42.78;;;22.27;;
20283;SDS011;10301;50.832;4.080;2023-02-04T11:15:45;37.83;;;20.33;;
20283;SDS011;10301;50.832;4.080;2023-02-04T11:20:46;33.78;;;19.15;;
20283;SDS011;10301;50.832;4.080;2023-02-04T11:23:28;38.10;;;18.40;;
20283;SDS011;10301;50.832;4.080;2023-02-04T11:26:07;37.20;;;18.35;;
20283;SDS011;10301;50.832;4.080;2023-02-04T11:28:43;32.25;;;17.52;;
20283;SDS011;10301;50.832;4.080;2023-02-04T11:31:25;31.25;;;16.15;;
20283;SDS011;10301;50.832;4.080;2023-02-04T11:36:49;30.40;;;16.05;;
20283;SDS011;10301;50.832;4.080;2023-02-04T11:39:21;27.45;;;14.95;;
20283;SDS011;10301;50.832;4.080;2023-02-04T11:41:52;26.38;;;15.60;;
20283;SDS011;10301;50.832;4.080;2023-02-04T11:44:17;27.98;;;14.65;;
20283;SDS011;10301;50.832;4.080;2023-02-04T11:46:48;25.85;;;13.57;;
20283;SDS011;10301;50.832;4.080;2023-02-04T11:49:21;25.65;;;13.65;;
20283;SDS011;10301;50.832;4.080;2023-02-04T11:51:49;22.80;;;12.55;;
20283;SDS011;10301;50.832;4.080;2023-02-04T11:54:16;24.83;;;13.63;;
20283;SDS011;10301;50.832;4.080;2023-02-04T11:56:45;23.63;;;12.93;;
20283;SDS011;10301;50.832;4.080;2023-02-04T11:59:12;22.92;;;13.45;;
20283;SDS011;10301;50.832;4.080;2023-02-04T12:01:39;22.60;;;13.30;;
20283;SDS011;10301;50.832;4.080;2023-02-04T12:04:06;20.20;;;12.48;;
20283;SDS011;10301;50.832;4.080;2023-02-04T12:06:55;20.77;;;13.85;;
20283;SDS011;10301;50.832;4.080;2023-02-04T12:09:23;22.58;;;12.98;;
20283;SDS011;10301;50.832;4.080;2023-02-04T12:11:54;23.23;;;13.75;;
20283;SDS011;10301;50.832;4.080;2023-02-04T12:14:31;24.25;;;13.27;;
20283;SDS011;10301;50.832;4.080;2023-02-04T12:16:58;22.13;;;12.98;;
20283;SDS011;10301;50.832;4.080;2023-02-04T12:19:25;25.33;;;14.02;;
20283;SDS011;10301;50.832;4.080;2023-02-04T12:21:51;23.23;;;12.57;;
20283;SDS011;10301;50.832;4.080;2023-02-04T12:24:17;25.70;;;13.35;;
20283;SDS011;10301;50.832;4.080;2023-02-04T12:26:43;23.73;;;13.57;;
20283;SDS011;10301;50.832;4.080;2023-02-04T12:29:08;23.42;;;12.95;;
20283;SDS011;10301;50.832;4.080;2023-02-04T12:31:34;18.90;;;12.23;;
20283;SDS011;10301;50.832;4.080;2023-02-04T12:34:00;21.85;;;12.38;;
20283;SDS011;10301;50.832;4.080;2023-02-04T12:36:26;22.77;;;14.38;;
20283;SDS011;10301;50.832;4.080;2023-02-04T12:38:53;20.50;;;13.73;;
20283;SDS011;10301;50.832;4.080;2023-02-04T12:41:20;26.00;;;13.30;;
20283;SDS011;10301;50.832;4.080;2023-02-04T12:43:46;20.67;;;12.23;;
20283;SDS011;10301;50.832;4.080;2023-02-04T12:46:14;21.42;;;12.23;;
20283;SDS011;10301;50.832;4.080;2023-02-04T12:48:40;21.15;;;12.57;;
20283;SDS011;10301;50.832;4.080;2023-02-04T12:51:06;28.20;;;12.68;;
20283;SDS011;10301;50.832;4.080;2023-02-04T12:53:32;20.52;;;12.38;;
20283;SDS011;10301;50.832;4.080;2023-02-04T12:55:58;20.25;;;12.40;;
20283;SDS011;10301;50.832;4.080;2023-02-04T12:58:24;23.10;;;13.38;;
20283;SDS011;10301;50.832;4.080;2023-02-04T13:00:49;21.92;;;13.30;;
20283;SDS011;10301;50.832;4.080;2023-02-04T13:03:15;24.77;;;14.00;;
20283;SDS011;10301;50.832;4.080;2023-02-04T13:05:41;25.65;;;14.40;;
20283;SDS011;10301;50.832;4.080;2023-02-04T13:08:06;22.10;;;14.63;;
20283;SDS011;10301;50.832;4.080;2023-02-04T13:10:32;21.45;;;14.00;;
20283;SDS011;10301;50.832;4.080;2023-02-04T13:12:58;18.70;;;12.52;;
20283;SDS011;10301;50.832;4.080;2023-02-04T13:15:24;22.70;;;14.43;;
20283;SDS011;10301;50.832;4.080;2023-02-04T13:17:50;20.67;;;13.30;;
20283;SDS011;10301;50.832;4.080;2023-02-04T13:20:16;23.13;;;13.93;;
20283;SDS011;10301;50.832;4.080;2023-02-04T13:22:42;19.08;;;13.32;;
20283;SDS011;10301;50.832;4.080;2023-02-04T13:25:08;27.13;;;14.73;;
20283;SDS011;10301;50.832;4.080;2023-02-04T13:27:35;24.30;;;14.52;;
20283;SDS011;10301;50.832;4.080;2023-02-04T13:30:04;26.23;;;14.48;;
20283;SDS011;10301;50.832;4.080;2023-02-04T13:32:31;24.27;;;13.90;;
20283;SDS011;10301;50.832;4.080;2023-02-04T13:34:56;26.73;;;13.88;;
20283;SDS011;10301;50.832;4.080;2023-02-04T13:37:22;22.30;;;13.65;;
20283;SDS011;10301;50.832;4.080;2023-02-04T13:39:48;21.98;;;12.68;;
20283;SDS011;10301;50.832;4.080;2023-02-04T13:42:13;24.38;;;13.77;;
20283;SDS011;10301;50.832;4.080;2023-02-04T13:44:39;21.33;;;13.25;;
20283;SDS011;10301;50.832;4.080;2023-02-04T13:47:05;20.08;;;12.00;;
20283;SDS011;10301;50.832;4.080;2023-02-04T13:49:30;18.77;;;11.43;;
20283;SDS011;10301;50.832;4.080;2023-02-04T13:51:56;21.85;;;11.90;;
20283;SDS011;10301;50.832;4.080;2023-02-04T13:54:21;18.92;;;10.82;;
20283;SDS011;10301;50.832;4.080;2023-02-04T13:56:47;24.77;;;12.20;;
20283;SDS011;10301;50.832;4.080;2023-02-04T13:59:13;24.42;;;13.15;;
20283;SDS011;10301;50.832;4.080;2023-02-04T14:01:38;32.53;;;15.23;;
20283;SDS011;10301;50.832;4.080;2023-02-04T14:04:04;21.48;;;12.40;;
20283;SDS011;10301;50.832;4.080;2023-02-04T14:06:30;19.05;;;11.60;;
20283;SDS011;10301;50.832;4.080;2023-02-04T14:09:02;19.60;;;11.50;;
20283;SDS011;10301;50.832;4.080;2023-02-04T14:11:28;21.00;;;12.30;;
20283;SDS011;10301;50.832;4.080;2023-02-04T14:13:54;16.75;;;10.70;;
20283;SDS011;10301;50.832;4.080;2023-02-04T14:16:19;17.52;;;11.00;;
20283;SDS011;10301;50.832;4.080;2023-02-04T14:18:45;20.30;;;9.88;;
20283;SDS011;10301;50.832;4.080;2023-02-04T14:21:11;20.02;;;10.27;;
20283;SDS011;10301;50.832;4.080;2023-02-04T14:23:36;21.15;;;10.93;;
20283;SDS011;10301;50.832;4.080;2023-02-04T14:26:02;25.95;;;10.55;;
20283;SDS011;10301;50.832;4.080;2023-02-04T14:28:28;16.35;;;9.32;;
20283;SDS011;10301;50.832;4.080;2023-02-04T14:30:53;16.27;;;9.35;;
20283;SDS011;10301;50.832;4.080;2023-02-04T14:33:19;19.35;;;10.52;;
20283;SDS011;10301;50.832;4.080;2023-02-04T14:35:45;18.50;;;9.85;;